createdAt,value
2023-05-18T00:02:16.436Z,99640.56
2023-05-18T00:04:44.383Z,99643.00
2023-05-18T00:07:11.799Z,99638.50
2023-05-18T00:09:39.125Z,99642.59
2023-05-18T00:12:06.929Z,99641.97
2023-05-18T00:14:34.402Z,99637.97
2023-05-18T00:17:03.387Z,99642.09
2023-05-18T00:19:31.621Z,99634.34
2023-05-18T00:21:58.892Z,99633.47
2023-05-18T00:24:26.961Z,99635.66
2023-05-18T00:26:54.202Z,99626.72
2023-05-18T00:29:21.412Z,99631.91
2023-05-18T00:31:49.557Z,99631.13
2023-05-18T00:34:17.041Z,99635.53
2023-05-18T00:36:44.318Z,99638.59
2023-05-18T00:39:11.569Z,99637.94
2023-05-18T00:41:39.043Z,99641.81
2023-05-18T00:44:07.144Z,99640.41
2023-05-18T00:46:34.538Z,99640.06
2023-05-18T00:49:02.604Z,99631.59
2023-05-18T00:51:32.653Z,99639.84
2023-05-18T00:54:02.626Z,99639.44
2023-05-18T00:56:34.500Z,99645.28
2023-05-18T00:59:03.628Z,99642.69
2023-05-18T01:01:37.170Z,99644.84
2023-05-18T01:04:05.234Z,99646.13
2023-05-18T01:06:36.472Z,99653.56
2023-05-18T01:09:07.186Z,99648.72
2023-05-18T01:11:56.020Z,99650.88
2023-05-18T01:14:45.939Z,99661.66
2023-05-18T01:17:51.464Z,99663.94
2023-05-18T01:20:42.641Z,99665.44
2023-05-18T01:23:35.806Z,99663.81
2023-05-18T01:26:29.990Z,99668.16
2023-05-18T01:29:07.587Z,99671.34
2023-05-18T01:31:36.089Z,99667.25
2023-05-18T01:34:03.481Z,99675.78
2023-05-18T01:36:31.797Z,99677.72
2023-05-18T01:39:02.173Z,99676.72
2023-05-18T01:41:36.711Z,99669.63
2023-05-18T01:44:16.169Z,99677.41
2023-05-18T01:46:55.969Z,99678.16
2023-05-18T01:50:02.136Z,99682.78
2023-05-18T01:52:37.826Z,99684.50
2023-05-18T01:55:07.410Z,99683.94
2023-05-18T01:57:37.234Z,99683.22
2023-05-18T02:00:10.491Z,99682.47
2023-05-18T02:02:37.749Z,99683.00
2023-05-18T02:05:06.892Z,99679.44
2023-05-18T02:07:34.930Z,99681.81
2023-05-18T02:10:02.280Z,99690.53
2023-05-18T02:12:30.729Z,99679.78
2023-05-18T02:14:58.686Z,99687.94
2023-05-18T02:17:26.789Z,99689.44
2023-05-18T02:19:54.040Z,99687.31
2023-05-18T02:22:22.108Z,99693.66
2023-05-18T02:24:49.420Z,99683.84
2023-05-18T02:27:16.726Z,99685.59
2023-05-18T02:29:44.041Z,99689.75
2023-05-18T02:32:12.102Z,99696.22
2023-05-18T02:34:42.427Z,99693.44
2023-05-18T02:37:10.825Z,99687.53
2023-05-18T02:39:38.930Z,99694.63
2023-05-18T02:42:06.756Z,99700.66
2023-05-18T02:44:34.797Z,99692.03
2023-05-18T02:47:02.062Z,99694.81
2023-05-18T02:49:30.137Z,99689.56
2023-05-18T02:51:57.344Z,99689.22
2023-05-18T02:54:24.649Z,99689.94
2023-05-18T02:56:51.854Z,99693.19
2023-05-18T02:59:19.940Z,99698.03
2023-05-18T03:01:47.216Z,99692.25
2023-05-18T03:04:14.460Z,99693.31
2023-05-18T03:06:42.610Z,99696.53
2023-05-18T03:09:09.835Z,99692.25
2023-05-18T03:11:37.859Z,99701.28
2023-05-18T03:14:05.118Z,99701.81
2023-05-18T03:16:32.388Z,99711.94
2023-05-18T03:19:02.260Z,99698.78
2023-05-18T03:21:34.060Z,99709.69
2023-05-18T03:24:01.425Z,99702.78
2023-05-18T03:26:31.231Z,99708.56
2023-05-18T03:28:59.985Z,99705.34
2023-05-18T03:31:27.279Z,99703.09
2023-05-18T03:33:54.594Z,99703.75
2023-05-18T03:36:22.781Z,99713.09
2023-05-18T03:38:49.994Z,99715.53
2023-05-18T03:41:18.030Z,99721.97
2023-05-18T03:43:45.259Z,99722.84
2023-05-18T03:46:12.589Z,99724.34
2023-05-18T03:48:39.813Z,99724.34
2023-05-18T03:51:07.870Z,99728.41
2023-05-18T03:53:36.492Z,99728.41
2023-05-18T03:56:03.926Z,99736.56
2023-05-18T03:58:31.144Z,99735.09
2023-05-18T04:01:00.741Z,99734.84
2023-05-18T04:03:28.284Z,99737.47
2023-05-18T04:05:56.072Z,99739.38
2023-05-18T04:08:25.769Z,99747.47
2023-05-18T04:10:53.292Z,99750.16
2023-05-18T04:13:20.740Z,99750.38
2023-05-18T04:15:49.019Z,99750.53
2023-05-18T04:18:17.440Z,99755.53
2023-05-18T04:20:46.329Z,99753.28
2023-05-18T04:23:13.618Z,99749.72
2023-05-18T04:25:41.887Z,99753.56
2023-05-18T04:28:10.092Z,99750.38
2023-05-18T04:30:40.377Z,99762.63
2023-05-18T04:33:08.918Z,99758.72
2023-05-18T04:35:37.182Z,99765.22
2023-05-18T04:38:05.496Z,99778.56
2023-05-18T04:40:34.373Z,99778.00
2023-05-18T04:43:01.954Z,99769.94
2023-05-18T04:45:30.390Z,99770.91
2023-05-18T04:47:59.020Z,99770.16
2023-05-18T04:50:26.334Z,99773.81
2023-05-18T04:52:58.253Z,99782.69
2023-05-18T04:55:28.256Z,99778.47
2023-05-18T04:57:57.925Z,99768.47
2023-05-18T05:00:29.287Z,99772.63
2023-05-18T05:02:58.804Z,99778.63
2023-05-18T05:05:27.444Z,99779.69
2023-05-18T05:07:56.048Z,99784.47
2023-05-18T05:10:23.631Z,99785.22
2023-05-18T05:12:52.051Z,99783.56
2023-05-18T05:15:20.629Z,99792.38
2023-05-18T05:17:49.361Z,99791.16
2023-05-18T05:20:17.498Z,99795.63
2023-05-18T05:22:45.168Z,99794.94
2023-05-18T05:25:12.503Z,99802.50
2023-05-18T05:27:40.789Z,99792.28
2023-05-18T05:30:08.847Z,99793.16
2023-05-18T05:32:36.906Z,99802.97
2023-05-18T05:35:05.627Z,99803.47
2023-05-18T05:37:32.810Z,99804.69
2023-05-18T05:40:00.018Z,99809.59
2023-05-18T05:42:28.097Z,99810.28
2023-05-18T05:44:56.331Z,99808.94
2023-05-18T05:47:23.916Z,99811.44
2023-05-18T05:49:51.173Z,99817.16
2023-05-18T05:52:19.240Z,99816.88
2023-05-18T05:54:46.681Z,99812.63
2023-05-18T05:57:13.984Z,99814.75
2023-05-18T05:59:42.039Z,99817.78
2023-05-18T06:02:09.313Z,99818.00
2023-05-18T06:04:37.409Z,99820.34
2023-05-18T06:07:04.942Z,99822.06
2023-05-18T06:09:33.023Z,99817.16
2023-05-18T06:12:00.387Z,99828.78
2023-05-18T06:14:28.459Z,99831.06
2023-05-18T06:16:56.561Z,99836.34
2023-05-18T06:19:23.986Z,99830.41
2023-05-18T06:21:51.316Z,99840.81
2023-05-18T06:24:18.497Z,99839.75
2023-05-18T06:26:46.535Z,99834.22
2023-05-18T06:29:14.576Z,99847.16
2023-05-18T06:31:41.819Z,99840.66
2023-05-18T06:34:09.056Z,99848.09
2023-05-18T06:36:38.317Z,99849.09
2023-05-18T06:39:05.989Z,99846.19
2023-05-18T06:41:34.334Z,99846.44
2023-05-18T06:44:02.377Z,99847.47
2023-05-18T06:46:30.470Z,99855.75
2023-05-18T06:48:57.892Z,99862.78
2023-05-18T06:51:26.068Z,99861.63
2023-05-18T06:53:53.303Z,99860.28
2023-05-18T06:56:22.592Z,99861.13
2023-05-18T06:58:50.028Z,99865.28
2023-05-18T07:01:18.232Z,99874.03
2023-05-18T07:03:45.706Z,99875.59
2023-05-18T07:06:12.981Z,99870.00
2023-05-18T07:08:41.099Z,99871.03
2023-05-18T07:11:09.679Z,99874.28
2023-05-18T07:13:37.759Z,99871.63
2023-05-18T07:16:05.236Z,99873.47
2023-05-18T07:18:34.205Z,99881.47
2023-05-18T07:21:02.255Z,99881.00
2023-05-18T07:23:29.534Z,99881.47
2023-05-18T07:25:57.994Z,99892.22
2023-05-18T07:28:25.456Z,99885.06
2023-05-18T07:30:52.723Z,99885.16
2023-05-18T07:33:19.977Z,99895.56
2023-05-18T07:35:47.335Z,99891.19
2023-05-18T07:38:16.790Z,99889.88
2023-05-18T07:40:44.007Z,99888.41
2023-05-18T07:43:11.985Z,99894.94
2023-05-18T07:45:40.048Z,99891.84
2023-05-18T07:48:08.204Z,99893.56
2023-05-18T07:50:36.380Z,99890.22
2023-05-18T07:53:03.625Z,99892.31
2023-05-18T07:55:32.222Z,99895.78
2023-05-18T07:58:01.319Z,99896.69
2023-05-18T08:00:28.930Z,99897.69
2023-05-18T08:02:56.459Z,99910.56
2023-05-18T08:05:24.812Z,99903.41
2023-05-18T08:07:52.196Z,99910.88
2023-05-18T08:10:19.425Z,99904.41
2023-05-18T08:12:47.510Z,99899.75
2023-05-18T08:15:14.804Z,99905.47
2023-05-18T08:17:42.171Z,99913.56
2023-05-18T08:20:11.263Z,99903.63
2023-05-18T08:22:38.589Z,99911.09
2023-05-18T08:25:10.502Z,99908.41
2023-05-18T08:27:37.776Z,99916.38
2023-05-18T08:30:05.413Z,99914.34
2023-05-18T08:32:32.701Z,99914.19
2023-05-18T08:35:00.652Z,99913.56
2023-05-18T08:37:29.686Z,99923.28
2023-05-18T08:39:57.217Z,99922.97
2023-05-18T08:42:46.066Z,99916.91
2023-05-18T08:45:49.350Z,99920.97
2023-05-18T08:48:17.455Z,99923.72
2023-05-18T08:50:47.596Z,99926.41
2023-05-18T08:53:15.576Z,99923.50
2023-05-18T08:55:44.493Z,99933.00
2023-05-18T08:58:18.108Z,99931.38
2023-05-18T09:00:45.575Z,99931.16
2023-05-18T09:03:14.498Z,99932.88
2023-05-18T09:05:42.360Z,99922.94
2023-05-18T09:08:10.477Z,99933.63
2023-05-18T09:10:39.540Z,99930.63
2023-05-18T09:13:07.687Z,99924.22
2023-05-18T09:15:37.992Z,99928.47
2023-05-18T09:18:05.312Z,99924.25
2023-05-18T09:20:32.875Z,99930.72
2023-05-18T09:23:00.441Z,99929.41
2023-05-18T09:25:29.188Z,99930.63
2023-05-18T09:27:57.358Z,99932.34
2023-05-18T09:30:25.891Z,99926.91
2023-05-18T09:32:53.815Z,99932.09
2023-05-18T09:35:22.116Z,99926.03
2023-05-18T09:37:50.533Z,99931.78
2023-05-18T09:40:19.700Z,99932.78
2023-05-18T09:42:47.840Z,99930.63
2023-05-18T09:45:29.541Z,99931.88
2023-05-18T09:47:57.450Z,99941.28
2023-05-18T09:50:25.742Z,99946.38
2023-05-18T09:52:52.974Z,99941.19
2023-05-18T09:55:21.352Z,99940.66
2023-05-18T09:57:50.742Z,99942.25
2023-05-18T10:00:22.206Z,99943.97
2023-05-18T10:02:53.060Z,99944.75
2023-05-18T10:05:29.930Z,99953.47
2023-05-18T10:07:58.741Z,99950.66
2023-05-18T10:10:29.999Z,99954.31
2023-05-18T10:13:00.666Z,99950.66
2023-05-18T10:15:28.037Z,99951.97
2023-05-18T10:17:59.129Z,99941.34
2023-05-18T10:20:27.710Z,99947.41
2023-05-18T10:23:01.519Z,99948.53
2023-05-18T10:25:30.329Z,99951.13
2023-05-18T10:28:07.759Z,99950.38
2023-05-18T10:30:35.672Z,99956.09
2023-05-18T10:33:06.942Z,99953.69
2023-05-18T10:35:39.801Z,99950.97
2023-05-18T10:38:08.817Z,99946.75
2023-05-18T10:40:40.991Z,99957.78
2023-05-18T10:43:08.569Z,99953.69
2023-05-18T10:45:37.756Z,99959.97
2023-05-18T10:48:07.107Z,99958.41
2023-05-18T10:50:37.890Z,99951.75
2023-05-18T10:53:07.153Z,99951.06
2023-05-18T10:55:34.514Z,99957.47
2023-05-18T10:58:16.449Z,99948.97
2023-05-18T11:00:55.470Z,99944.97
2023-05-18T11:03:25.650Z,99953.91
2023-05-18T11:06:13.293Z,99953.91
2023-05-18T11:11:55.209Z,99951.25
2023-05-18T11:14:28.569Z,99952.34
2023-05-18T11:17:22.630Z,99962.44
2023-05-18T11:20:10.136Z,99960.50
2023-05-18T11:23:02.820Z,99963.34
2023-05-18T11:25:34.010Z,99963.09
2023-05-18T11:28:21.088Z,99968.50
2023-05-18T11:30:56.482Z,99971.13
2023-05-18T11:33:32.502Z,99966.03
2023-05-18T11:36:13.882Z,99969.75
2023-05-18T11:39:11.474Z,99972.41
2023-05-18T11:41:42.850Z,99973.88
2023-05-18T11:44:14.301Z,99971.94
2023-05-18T11:46:54.183Z,99972.88
2023-05-18T11:49:27.176Z,99973.97
2023-05-18T11:52:06.887Z,99971.41
2023-05-18T11:54:56.868Z,99970.97
2023-05-18T11:57:40.779Z,99973.22
2023-05-18T12:00:12.369Z,99975.97
2023-05-18T12:02:47.928Z,99972.88
2023-05-18T12:05:16.293Z,99976.56
2023-05-18T12:07:45.151Z,99983.13
2023-05-18T12:10:28.670Z,99976.88
2023-05-18T12:12:58.195Z,99977.41
2023-05-18T12:15:28.999Z,99985.31
2023-05-18T12:17:59.330Z,99983.13
2023-05-18T12:20:27.536Z,99984.31
2023-05-18T12:22:56.536Z,99978.28
2023-05-18T12:25:27.183Z,99982.34
2023-05-18T12:27:55.603Z,99980.94
2023-05-18T12:30:36.078Z,99993.16
2023-05-18T12:33:04.693Z,99991.22
2023-05-18T12:35:33.216Z,99987.13
2023-05-18T12:38:01.936Z,99991.56
2023-05-18T12:40:46.705Z,99981.91
2023-05-18T12:43:14.116Z,99984.31
2023-05-18T12:45:45.223Z,99989.16
2023-05-18T12:48:15.267Z,99989.47
2023-05-18T12:50:51.062Z,99988.63
2023-05-18T12:53:19.340Z,99982.31
2023-05-18T12:55:55.873Z,99983.19
2023-05-18T12:58:23.098Z,99978.75
2023-05-18T13:00:50.350Z,99984.25
2023-05-18T13:03:23.146Z,99983.75
2023-05-18T13:06:08.758Z,99989.97
2023-05-18T13:08:38.047Z,99989.06
2023-05-18T13:11:14.438Z,99993.47
2023-05-18T13:14:04.825Z,99995.00
2023-05-18T13:16:35.463Z,99997.88
2023-05-18T13:19:08.911Z,99993.09
2023-05-18T13:21:37.684Z,99993.75
2023-05-18T13:24:06.309Z,99997.41
2023-05-18T13:26:37.301Z,99999.53
2023-05-18T13:29:08.805Z,100003.78
2023-05-18T13:31:37.065Z,100003.41
2023-05-18T13:34:06.275Z,99995.50
2023-05-18T13:36:36.746Z,99994.41
2023-05-18T13:39:07.520Z,100005.81
2023-05-18T13:41:36.828Z,99999.81
2023-05-18T13:44:04.268Z,100006.44
2023-05-18T13:46:32.384Z,100008.03
2023-05-18T13:48:59.684Z,100001.75
2023-05-18T13:51:27.093Z,100003.53
2023-05-18T13:53:54.376Z,100002.06
2023-05-18T13:56:22.668Z,100008.06
2023-05-18T13:58:50.407Z,100003.88
2023-05-18T14:01:18.465Z,100007.31
2023-05-18T14:03:45.967Z,100016.00
2023-05-18T14:06:14.999Z,100017.69
2023-05-18T14:08:42.240Z,100019.50
2023-05-18T14:11:09.480Z,100024.91
2023-05-18T14:13:36.721Z,100013.50
2023-05-18T14:16:04.066Z,100023.22
2023-05-18T14:18:31.374Z,100019.09
2023-05-18T14:21:02.423Z,100024.75
2023-05-18T14:23:30.172Z,100026.13
2023-05-18T14:25:59.207Z,100030.81
2023-05-18T14:28:27.324Z,100028.63
2023-05-18T14:30:59.657Z,100028.63
2023-05-18T14:33:26.983Z,100028.50
2023-05-18T14:35:56.081Z,100027.53
2023-05-18T14:38:27.060Z,100025.38
2023-05-18T14:40:55.303Z,100021.25
2023-05-18T14:43:23.501Z,100024.97
2023-05-18T14:46:04.350Z,100031.47
2023-05-18T14:48:35.225Z,100026.91
2023-05-18T14:51:04.492Z,100027.19
2023-05-18T14:53:31.763Z,100025.81
2023-05-18T14:55:59.716Z,100031.97
2023-05-18T14:58:27.003Z,100029.28
2023-05-18T15:00:54.188Z,100026.22
2023-05-18T15:03:25.049Z,100032.06
2023-05-18T15:05:54.574Z,100025.81
2023-05-18T15:08:21.891Z,100021.16
2023-05-18T15:10:50.308Z,100025.06
2023-05-18T15:13:18.490Z,100031.84
2023-05-18T15:15:46.672Z,100037.06
2023-05-18T15:18:13.992Z,100034.25
2023-05-18T15:20:44.252Z,100025.59
2023-05-18T15:23:11.729Z,100038.25
2023-05-18T15:25:41.042Z,100032.50
2023-05-18T15:28:09.393Z,100028.84
2023-05-18T15:30:36.676Z,100026.47
2023-05-18T15:33:06.514Z,100030.16
2023-05-18T15:35:35.099Z,100036.31
2023-05-18T15:38:04.122Z,100040.19
2023-05-18T15:40:31.633Z,100035.56
2023-05-18T15:42:59.451Z,100039.22
2023-05-18T15:45:30.237Z,100042.13
2023-05-18T15:47:59.452Z,100040.19
2023-05-18T15:50:26.996Z,100042.47
2023-05-18T15:52:54.291Z,100038.34
2023-05-18T15:55:21.631Z,100037.81
2023-05-18T15:57:48.873Z,100033.16
2023-05-18T16:00:16.613Z,100037.25
2023-05-18T16:02:44.187Z,100028.06
2023-05-18T16:05:11.890Z,100030.22
2023-05-18T16:07:41.387Z,100029.72
2023-05-18T16:10:30.247Z,100039.97
2023-05-18T16:16:19.761Z,100043.53
2023-05-18T16:22:21.344Z,100038.22
2023-05-18T16:25:15.688Z,100041.16
2023-05-18T16:27:42.993Z,100039.63
2023-05-18T16:30:10.811Z,100038.09
2023-05-18T16:32:38.055Z,100038.78
2023-05-18T16:35:05.997Z,100041.72
2023-05-18T16:37:37.337Z,100032.63
2023-05-18T16:40:08.296Z,100039.00
2023-05-18T16:42:37.655Z,100058.00
2023-05-18T16:45:07.149Z,100060.19
2023-05-18T16:47:34.441Z,100053.47
2023-05-18T16:50:01.822Z,100056.53
2023-05-18T16:52:29.208Z,100040.09
2023-05-18T16:54:56.419Z,100039.66
2023-05-18T16:57:27.720Z,100031.47
2023-05-18T16:59:55.083Z,100035.88
2023-05-18T17:02:24.509Z,100048.97
2023-05-18T17:04:52.507Z,100047.22
2023-05-18T17:07:21.882Z,100055.84
2023-05-18T17:09:49.366Z,100043.88
2023-05-18T17:12:17.444Z,100047.03
2023-05-18T17:14:44.763Z,100050.59
2023-05-18T17:17:12.816Z,100050.59
2023-05-18T17:19:41.779Z,100059.44
2023-05-18T17:22:09.938Z,100064.50
2023-05-18T17:24:38.371Z,100070.78
2023-05-18T17:27:06.777Z,100073.34
2023-05-18T17:29:36.901Z,100075.75
2023-05-18T17:32:05.770Z,100070.13
2023-05-18T17:34:33.078Z,100074.34
2023-05-18T17:37:00.373Z,100081.03
2023-05-18T17:39:28.597Z,100084.38
2023-05-18T17:41:57.829Z,100077.13
2023-05-18T17:44:26.405Z,100078.22
2023-05-18T17:46:54.487Z,100084.81
2023-05-18T17:49:21.749Z,100081.47
2023-05-18T17:51:49.118Z,100073.34
2023-05-18T17:54:17.303Z,100081.31
2023-05-18T17:56:45.425Z,100081.03
2023-05-18T17:59:13.864Z,100073.78
2023-05-18T18:01:43.287Z,100080.94
2023-05-18T18:04:10.849Z,100076.78
2023-05-18T18:06:38.173Z,100080.03
2023-05-18T18:09:06.873Z,100075.94
2023-05-18T18:11:34.202Z,100072.91
2023-05-18T18:14:06.329Z,100072.06
2023-05-18T18:16:34.789Z,100068.13
2023-05-18T18:19:03.106Z,100071.81
2023-05-18T18:21:31.371Z,100079.69
2023-05-18T18:23:59.703Z,100087.19
2023-05-18T18:26:27.807Z,100089.34
2023-05-18T18:28:55.972Z,100092.97
2023-05-18T18:31:23.388Z,100095.06
2023-05-18T18:33:51.633Z,100088.25
2023-05-18T18:36:19.833Z,100090.44
2023-05-18T18:38:48.160Z,100102.06
2023-05-18T18:41:17.574Z,100103.78
2023-05-18T18:43:45.903Z,100102.31
2023-05-18T18:46:13.287Z,100110.06
2023-05-18T18:48:41.514Z,100110.06
2023-05-18T18:51:09.717Z,100124.00
2023-05-18T18:53:38.758Z,100117.22
2023-05-18T18:56:06.950Z,100121.31
2023-05-18T18:58:35.216Z,100126.94
2023-05-18T19:01:03.421Z,100129.09
2023-05-18T19:03:33.183Z,100133.41
2023-05-18T19:06:01.997Z,100135.44
2023-05-18T19:08:30.168Z,100135.22
2023-05-18T19:10:58.426Z,100138.13
2023-05-18T19:13:26.772Z,100137.75
2023-05-18T19:15:54.987Z,100146.38
2023-05-18T19:18:23.265Z,100145.31
2023-05-18T19:20:50.645Z,100151.34
2023-05-18T19:23:19.644Z,100150.91
2023-05-18T19:25:47.843Z,100163.88
2023-05-18T19:28:15.197Z,100161.84
2023-05-18T19:30:43.617Z,100167.13
2023-05-18T19:33:11.840Z,100171.00
2023-05-18T19:35:41.008Z,100171.41
2023-05-18T19:38:09.352Z,100174.63
2023-05-18T19:40:36.696Z,100176.09
2023-05-18T19:43:05.899Z,100180.84
2023-05-18T19:45:34.541Z,100182.47
2023-05-18T19:48:03.223Z,100183.09
2023-05-18T19:50:31.530Z,100193.56
2023-05-18T19:52:59.763Z,100190.63
2023-05-18T19:55:27.977Z,100193.22
2023-05-18T19:57:55.315Z,100191.34
2023-05-18T20:00:24.090Z,100202.31
2023-05-18T20:02:51.379Z,100203.00
2023-05-18T20:05:19.078Z,100198.00
2023-05-18T20:07:47.251Z,100208.13
2023-05-18T20:10:15.936Z,100207.84
2023-05-18T20:12:46.655Z,100212.59
2023-05-18T20:15:14.733Z,100213.44
2023-05-18T20:17:43.090Z,100214.31
2023-05-18T20:20:10.464Z,100217.00
2023-05-18T20:22:38.714Z,100219.78
2023-05-18T20:25:07.101Z,100212.88
2023-05-18T20:27:35.608Z,100219.53
2023-05-18T20:30:04.485Z,100221.72
2023-05-18T20:32:33.436Z,100215.75
2023-05-18T20:35:01.706Z,100221.63
2023-05-18T20:37:29.006Z,100227.22
2023-05-18T20:39:57.618Z,100225.47
2023-05-18T20:42:38.753Z,100222.13
2023-05-18T20:45:09.120Z,100226.34
2023-05-18T20:47:36.428Z,100224.63
2023-05-18T20:50:04.311Z,100222.69
2023-05-18T20:52:31.613Z,100222.56
2023-05-18T20:55:00.956Z,100221.31
2023-05-18T20:57:31.734Z,100215.94
2023-05-18T20:59:59.005Z,100216.50
2023-05-18T21:02:26.486Z,100223.44
2023-05-18T21:04:58.037Z,100227.03
2023-05-18T21:07:26.240Z,100227.84
2023-05-18T21:09:53.540Z,100229.06
2023-05-18T21:12:20.839Z,100228.41
2023-05-18T21:14:48.262Z,100229.41
2023-05-18T21:17:35.245Z,100229.16
2023-05-18T21:20:02.773Z,100235.69
2023-05-18T21:22:31.894Z,100235.13
2023-05-18T21:24:59.318Z,100238.13
2023-05-18T21:27:26.620Z,100231.69
2023-05-18T21:29:55.736Z,100235.47
2023-05-18T21:32:23.155Z,100233.06
2023-05-18T21:34:51.335Z,100235.97
2023-05-18T21:37:18.593Z,100231.44
2023-05-18T21:39:46.984Z,100228.16
2023-05-18T21:42:15.090Z,100227.56
2023-05-18T21:44:43.160Z,100233.28
2023-05-18T21:47:10.578Z,100238.66
2023-05-18T21:49:37.937Z,100239.91
2023-05-18T21:52:05.350Z,100250.84
2023-05-18T21:54:35.668Z,100247.81
2023-05-18T21:57:04.986Z,100249.28
2023-05-18T21:59:32.373Z,100244.50
2023-05-18T22:01:59.742Z,100249.09
2023-05-18T22:04:27.040Z,100247.94
2023-05-18T22:06:55.118Z,100236.13
2023-05-18T22:09:23.221Z,100242.72
2023-05-18T22:11:51.500Z,100235.84
2023-05-18T22:14:19.656Z,100239.19
2023-05-18T22:16:48.088Z,100239.59
2023-05-18T22:19:16.336Z,100241.38
2023-05-18T22:21:44.496Z,100233.00
2023-05-18T22:24:13.584Z,100238.22
2023-05-18T22:26:43.522Z,100239.28
2023-05-18T22:29:10.977Z,100235.44
2023-05-18T22:31:40.241Z,100239.84
2023-05-18T22:34:08.343Z,100247.06
2023-05-18T22:36:35.659Z,100244.47
2023-05-18T22:39:04.645Z,100241.88
2023-05-18T22:41:31.943Z,100240.94
2023-05-18T22:43:59.240Z,100235.44
2023-05-18T22:46:26.685Z,100237.44
2023-05-18T22:48:54.038Z,100237.28
2023-05-18T22:51:23.639Z,100229.88
2023-05-18T22:53:50.943Z,100230.00
2023-05-18T22:56:19.787Z,100234.22
2023-05-18T22:58:47.129Z,100232.38
2023-05-18T23:01:14.453Z,100236.41
2023-05-18T23:03:41.794Z,100240.22
2023-05-18T23:06:09.389Z,100234.91
2023-05-18T23:08:37.322Z,100239.34
2023-05-18T23:11:06.027Z,100242.22
2023-05-18T23:13:33.299Z,100243.44
2023-05-18T23:16:02.571Z,100243.78
2023-05-18T23:18:30.645Z,100246.38
2023-05-18T23:20:58.886Z,100245.16
2023-05-18T23:23:26.392Z,100243.88
2023-05-18T23:25:53.748Z,100244.81
2023-05-18T23:28:21.858Z,100253.47
2023-05-18T23:30:49.219Z,100255.06
2023-05-18T23:33:17.862Z,100265.16
2023-05-18T23:35:47.057Z,100264.38
2023-05-18T23:38:18.883Z,100267.22
2023-05-18T23:40:47.903Z,100258.09
2023-05-18T23:43:15.453Z,100256.72
2023-05-18T23:45:43.076Z,100243.59
2023-05-18T23:48:11.979Z,100239.59
2023-05-18T23:50:42.366Z,100234.78
2023-05-18T23:53:15.134Z,100235.78
2023-05-18T23:55:43.318Z,100234.22
2023-05-18T23:58:12.175Z,100228.66
